Tiempo atmosférico en la estación meteorológica de Baztan, Irurita, Navarra (183 m.)



Fecha
DESCASC
Temp. máxima en grados centígrados (hora)
DESCASC
Temp. mínima en grados centígrados (hora)
DESCASC
Temp. media en grados centígrados
DESCASC
Racha de viento máxima en m/sg (hora)
DESCASC
Velocidad máxima media en intervalos de 10 minutos(hora)
DESCASC
Precipitaciones diarias en mm
DESCASC
Precipitaciones de 00:00 a 06:00 en mm
DESCASC
Precipitaciones de 06:00 a 12:00 en mm
DESCASC
Precipitaciones de 12:00 a 18:00 en mm
DESCASC
Precipitaciones de 18:00 a 24:00 en mm
DESCASC
31-03-2020 8.6 (17:30) 0.3 (01:20) 4.5 2.5 (13:50) 1.39 (13:30) 6.3 0.5 3.5 1.5 0.8
30-03-2020 7.8 (15:10) 0 (07:20) 3.9 6.39 (12:40) 3.33 (12:40) 0 0 0 0 0
29-03-2020 13.4 (14:50) -0.5 (-00:0) 6.4 7.22 (22:30) 3.33 (18:10) 0 0 0 0 0
28-03-2020 18.2 (14:20) -0.6 (-00:0) 8.8 6.39 (14:20) 3.06 (17:10) 0 0 0 0 0
27-03-2020 15.4 (14:40) -2 (-00:0) 6.7 7.22 (15:20) 3.61 (17:40) 0 0 0 0 0
26-03-2020 12.1 (15:10) 1.3 (00:00) 6.7 10 (11:50) 5.28 (13:20) 0 0 0 0 0
25-03-2020 18.1 (15:00) 1.2 (00:00) 9.7 7.78 (16:20) 3.61 (16:40) 0 0 0 0 0
24-03-2020 19.8 (14:30) 5.3 (00:00) 12.5 6.94 (16:30) 3.61 (16:30) 0 0 0 0 0
23-03-2020 17.2 (14:20) 8.3 (00:00) 12.8 6.39 (16:20) 3.33 (15:40) 0 0 0 0 0
22-03-2020 18.4 (12:30) 4.7 (02:20) 11.5 6.39 (12:50) 3.61 (13:00) 0 0 0 0 0
21-03-2020 20.4 (15:40) 6.3 (00:00) 13.3 10.56 (08:40) 5.56 (08:40) 0 0 0 0 0
20-03-2020 19.6 (14:40) 6.4 (00:00) 13 10.28 (11:40) 5.28 (10:40) 0 0 0 0 0
19-03-2020 21.3 (13:20) 6.4 (00:00) 13.8 8.33 (14:20) 3.89 (14:20) 0 0 0 0 0
18-03-2020 19.9 (16:40) 5.5 (00:00) 12.7 3.61 (15:00) 1.67 (15:00) 0 0 0 0 0
17-03-2020 14.3 (17:00) 6.7 (00:00) 10.5 2.5 (15:50) 1.11 (16:10) 0 0 0 0 0
16-03-2020 10.1 (14:40) 7.7 (00:00) 8.9 1.67 (17:20) 0.83 (17:20) 23.3 13.7 7.5 1.7 0.4
15-03-2020 23.1 (15:20) -0.5 (-00:0) 11.3 11.11 (12:00) 4.72 (11:50) 19.2 0 0 0 19.2
14-03-2020 15 (16:20) 1.9 (00:00) 8.4 5.28 (12:10) 2.78 (12:20) 0 0 0 0 0
13-03-2020 11.3 (10:20) 5 (21:50) 8.2 6.11 (02:30) 2.78 (13:20) 0 0 0 0 0
12-03-2020 14.2 (13:30) 8 (00:00) 11.1 5.83 (23:00) 3.06 (23:00) 0.3 0 0.2 0 0.1
11-03-2020 23.1 (14:50) 3.6 (00:00) 13.4 5 (16:40) 2.22 (17:00) 0 0 0 0 0
10-03-2020 18.5 (15:50) 4.6 (00:00) 11.5 5 (16:30) 2.78 (16:30) 0.1 0.1 0 0 0
09-03-2020 11 (13:50) 6.4 (00:00) 8.7 8.61 (15:00) 3.33 (15:00) 11 5.3 5 0.4 0.3
08-03-2020 15.1 (14:50) 3 (00:00) 9.1 6.67 (18:40) 2.5 (18:40) 0.4 0.1 0 0 0.3
07-03-2020 10.7 (14:30) 5.3 (00:00) 8 7.22 (01:30) 1.94 (05:10) 14.8 7.3 5 2.5 0
06-03-2020 9 (14:50) 3.3 (00:00) 6.1 13.61 (13:00) 4.44 (23:10) 39.8 0.8 12.4 11.2 15.4
05-03-2020 15.3 (06:20) 6 (00:00) 10.7 14.17 (15:10) 4.72 (09:20) 20.8 0 13.5 2.2 5.1
04-03-2020 16.8 (15:50) 7.5 (00:00) 12.1 4.72 (13:50) 1.39 (13:50) 11.6 2 9.6 0 0
03-03-2020 14.1 (15:40) 3.9 (00:00) 9 17.5 (16:10) 6.39 (16:00) 9.2 0.1 3.4 3.9 1.8

Gráficas

Temp. máximas Temp. mínimas Temp. medias Precipitaciones Rachas de viento máximas Velocidades máximas media en intervalos de 10 minutos

Datos horarios

Fecha y hora oficial Temperatura (ºC) Velocidad del viento (km/h) Dirección del viento Racha (km/h) Dirección de racha Precipitación (mm) Presión (hPa) Tendencia (hPa) Humedad (%)
2020-04-01 23:00:00 10.1 0 Calma 3 Noroeste 0.3 -- -- 99
2020-04-01 22:00:00 10.2 0 Calma 5 Sur 0.1 -- -- 99
2020-04-01 21:00:00 10.6 0 Calma 6 Sudoeste 0 -- -- 97
2020-04-01 20:00:00 11.4 3 Sudoeste 6 Sudoeste 0.2 -- -- 93
2020-04-01 19:00:00 12.5 2 Sudoeste 5 Sudoeste 0 -- -- 84
2020-04-01 18:00:00 12.7 0 Calma 5 Noroeste 0 -- -- 82
2020-04-01 17:00:00 12.9 3 Oeste 8 Sudeste 0.2 -- -- 81
2020-04-01 16:00:00 13.3 4 Sur 12 Noroeste 0 -- -- 79
2020-04-01 15:00:00 13.1 5 Noroeste 16 Noroeste 0 -- -- 72
2020-04-01 14:00:00 13.7 10 Noroeste 18 Noroeste 0 -- -- 70
2020-04-01 13:00:00 15 5 Oeste 16 Sudoeste 0 -- -- 64
2020-04-01 12:00:00 14.2 2 Sudeste 8 Sudeste 0 -- -- 77
2020-04-01 11:00:00 10.4 2 Sudoeste 6 Sudoeste 0 -- -- 89
2020-04-01 10:00:00 6.6 2 Nordeste 5 Nordeste 0 -- -- --
2020-04-01 09:00:00 5.5 0 Calma 6 Nordeste 0 -- -- --
2020-04-01 08:00:00 5.4 0 Calma 5 Sudeste 0 -- -- --
2020-04-01 07:00:00 5.7 0 Calma 3 Sur 0 -- -- --
2020-04-01 06:00:00 5.9 0 Calma 4 Norte 0 -- -- --
2020-04-01 05:00:00 6 0 Calma 2 Noroeste 0 -- -- --
2020-04-01 04:00:00 5.9 0 Calma 2 Noroeste 0 -- -- --
2020-04-01 03:00:00 5.9 0 Calma 3 Nordeste 0 -- -- --
2020-04-01 02:00:00 6.1 0 Calma 2 Sudoeste 0 -- -- --
2020-04-01 01:00:00 6.1 0 Calma 2 Noroeste 0 -- -- --
2020-04-01 00:00:00 6.1 0 Calma 2 Sur 0 -- -- --
2020-03-31 23:00:00 6.4 0 Calma 3 Noroeste 0 -- -- --
2020-03-31 22:00:00 6.7 0 Calma 3 Norte 0 -- -- 99
2020-03-31 21:00:00 7.1 0 Calma 4 Noroeste 0.1 -- -- 99
2020-03-31 20:00:00 7.5 0 Calma 4 Norte 0.3 -- -- 99
2020-03-31 19:00:00 7.9 0 Calma 4 Noroeste 0.4 -- -- 99
2020-03-31 18:00:00 8.1 2 Noroeste 5 Noroeste 0.5 -- -- 96
2020-03-31 17:00:00 8.1 0 Calma 5 Noroeste 0.1 -- -- 90
2020-03-31 16:00:00 7.7 3 Norte 6 Noroeste 0.5 -- -- 94
2020-03-31 15:00:00 7 2 Noroeste 8 Noroeste 0.2 -- -- 93
2020-03-31 14:00:00 6.6 3 Noroeste 9 Noroeste 0 -- -- 91
2020-03-31 13:00:00 5.6 4 Noroeste 8 Noroeste 0.2 -- -- 95
2020-03-31 12:00:00 4 0 Calma 5 Noroeste 1 -- -- 99
2020-03-31 11:00:00 2.8 2 Norte 6 Noroeste 0.1 -- -- 99
2020-03-31 10:00:00 1.8 0 Calma 4 Noroeste 0.3 -- -- 99
2020-03-31 09:00:00 1.6 0 Calma 3 Nordeste 0.4 -- -- 99
2020-03-31 08:00:00 1.1 0 Calma 4 Noroeste 0.7 -- -- 99
2020-03-31 07:00:00 1.4 0 Calma 4 Noroeste 1 -- -- 99
2020-03-31 06:00:00 1.8 0 Calma 3 Noroeste 0.3 -- -- 99
2020-03-31 05:00:00 1.7 2 Norte 3 Norte 0.2 -- -- 99
2020-03-31 04:00:00 1.4 0 Calma 2 Norte 0 -- -- 99
2020-03-31 03:00:00 0.9 0 Calma 2 Norte 0 -- -- 99
2020-03-31 02:00:00 0.6 0 Calma 4 Norte 0 -- -- 99
2020-03-31 01:00:00 0.4 0 Calma 2 Noroeste 0 -- -- 99
2020-03-31 00:00:00 0.6 0 Calma 2 Noroeste 0 -- -- 99
2020-03-30 23:00:00 1.4 0 Calma 6 Noroeste 0 -- -- 98
2020-03-30 22:00:00 2.6 2 Norte 5 Sudoeste 0 -- -- 94
2020-03-30 21:00:00 2.8 2 Sudoeste 4 Sur 0 -- -- 87
2020-03-30 20:00:00 5.3 0 Calma 10 Sudeste 0 -- -- 81
2020-03-30 19:00:00 5.2 5 Sudeste 15 Norte 0 -- -- 77
2020-03-30 18:00:00 5.6 6 Norte 19 Norte 0 -- -- 72
2020-03-30 17:00:00 6.3 8 Nordeste 15 Norte 0 -- -- 66
2020-03-30 16:00:00 6.2 3 Nordeste 12 Noroeste 0 -- -- 65
2020-03-30 15:00:00 5.9 3 Noroeste 13 Noroeste 0 -- -- 67
2020-03-30 14:00:00 5.5 0 Calma 14 Noroeste 0 -- -- 65
2020-03-30 13:00:00 5.6 6 Norte 23 Norte 0 -- -- 64
2020-03-30 12:00:00 5.2 9 Norte 18 Norte 0 -- -- 65
2020-03-30 11:00:00 4.3 3 Noroeste 15 Norte 0 -- -- 68
2020-03-30 10:00:00 4.2 11 Norte 18 Norte 0 -- -- 70
2020-03-30 09:00:00 2.9 0 Calma 4 Norte 0 -- -- 95
2020-03-30 08:00:00 0.1 0 Calma 5 Sudoeste 0 -- -- 99
2020-03-30 07:00:00 0.6 0 Calma 4 Norte 0 -- -- 99
2020-03-30 06:00:00 1.5 0 Calma 6 Sudoeste 0 -- -- 95
2020-03-30 05:00:00 2.9 3 Sudoeste 5 Oeste 0 -- -- 90
2020-03-30 04:00:00 3.6 3 Sur 12 Norte 0 -- -- 88
2020-03-30 03:00:00 3.7 9 Norte 18 Norte 0 -- -- 88
2020-03-30 02:00:00 3.7 5 Norte 17 Nordeste 0 -- -- 91
2020-03-30 01:00:00 4 9 Norte 21 Noroeste 0 -- -- 89
2020-03-30 00:00:00 5 4 Norte 18 Norte 0 -- -- 87
2020-03-29 23:00:00 6.6 6 Norte 26 Noroeste 0 -- -- 78
2020-03-29 22:00:00 8.8 2 Oeste 14 Sur 0 -- -- 82
2020-03-29 21:00:00 9.1 3 Sudoeste 14 Noroeste 0 -- -- 82
2020-03-29 20:00:00 9.6 3 Noroeste 17 Norte 0 -- -- 81
2020-03-29 19:00:00 10.1 0 Calma 23 Norte 0 -- -- 79
2020-03-29 18:00:00 11.3 2 Norte 21 Norte 0 -- -- 74
2020-03-29 17:00:00 11.5 8 Noroeste 21 Noroeste 0 -- -- 76
2020-03-29 16:00:00 11.2 6 Norte 21 Norte 0 -- -- 76
2020-03-29 15:00:00 12.6 4 Noroeste 15 Noroeste 0 -- -- 68
2020-03-29 14:00:00 11.9 6 Noroeste 20 Norte 0 -- -- 69
2020-03-29 13:00:00 11.6 3 Sur 8 Sur 0 -- -- 71
2020-03-29 12:00:00 8.8 0 Calma 4 Noroeste 0 -- -- 79
2020-03-29 11:00:00 6.5 0 Calma 6 Sur 0 -- -- 89
2020-03-29 10:00:00 3.8 0 Calma 2 Sudeste 0 -- -- 99
2020-03-29 09:00:00 1.9 0 Calma 2 Sudoeste 0 -- -- --
2020-03-29 08:00:00 0.5 0 Calma 3 Sur 0 -- -- --
2020-03-29 07:00:00 -0.3 0 Calma 0 Calma 0 -- -- --
2020-03-29 06:00:00 0 0 Calma 0 Calma 0 -- -- 99
2020-03-29 05:00:00 0.2 0 Calma 0 Calma 0 -- -- 99
2020-03-29 03:00:00 1.4 0 Calma 2 Oeste 0 -- -- 99
2020-03-29 01:00:00 1.9 0 Calma 0 Calma 0 -- -- 99
2020-03-29 00:00:00 2.8 0 Calma 2 Sudoeste 0 -- -- 99
2020-03-28 23:00:00 3.4 0 Calma 2 Nordeste 0 -- -- 97
2020-03-28 22:00:00 4.6 0 Calma 3 Noroeste 0 -- -- 91
2020-03-28 21:00:00 7 0 Calma 5 Sudoeste 0 -- -- 80
2020-03-28 20:00:00 9.3 3 Sudeste 15 Este 0 -- -- 63
2020-03-28 19:00:00 12.4 6 Este 14 Este 0 -- -- 53
2020-03-28 18:00:00 15 6 Nordeste 18 Norte 0 -- -- 51
2020-03-28 17:00:00 16 11 Norte 19 Nordeste 0 -- -- 50
2020-03-28 16:00:00 16.5 8 Norte 18 Norte 0 -- -- 49
2020-03-28 15:00:00 16.9 11 Norte 23 Nordeste 0 -- -- 47
2020-03-28 14:00:00 16.7 8 Nordeste 18 Este 0 -- -- 42
2020-03-28 13:00:00 17.6 2 Sudeste 14 Nordeste 0 -- -- 41
2020-03-28 12:00:00 15.3 3 Oeste 7 Oeste 0 -- -- 48
2020-03-28 11:00:00 11.1 2 Nordeste 6 Nordeste 0 -- -- 59
2020-03-28 10:00:00 7.3 3 Sudeste 5 Este 0 -- -- 82
2020-03-28 09:00:00 3.5 0 Calma 3 Nordeste 0 -- -- 99
2020-03-28 08:00:00 0.4 0 Calma 3 Norte 0 -- -- 99
2020-03-28 07:00:00 -0.4 0 Calma 2 Sudoeste 0 -- -- 99
2020-03-28 06:00:00 -0.3 0 Calma 0 Calma 0 -- -- 99
2020-03-28 05:00:00 -0.1 0 Calma 3 Noroeste 0 -- -- 99
2020-03-28 04:00:00 0.6 0 Calma 3 Noroeste 0 -- -- 99
2020-03-28 03:00:00 0.5 0 Calma 2 Sur 0 -- -- 99
2020-03-28 02:00:00 1 0 Calma 4 Sudeste 0 -- -- 99
2020-03-28 01:00:00 1.7 0 Calma 2 Sudoeste 0 -- -- 99
2020-03-28 00:00:00 2.6 0 Calma 3 Sur 0 -- -- 99
2020-03-27 23:00:00 3.4 0 Calma 3 Sur 0 -- -- 97
2020-03-27 22:00:00 4.4 0 Calma 3 Sudeste 0 -- -- 94
2020-03-27 21:00:00 6 0 Calma 4 Sur 0 -- -- 87
2020-03-27 20:00:00 7.5 0 Calma 6 Este 0 -- -- 78
2020-03-27 19:00:00 10.6 0 Calma 18 Norte 0 -- -- 63
2020-03-27 18:00:00 12.2 9 Norte 26 Norte 0 -- -- 56
2020-03-27 17:00:00 13.7 8 Este 22 Nordeste 0 -- -- 44
2020-03-27 16:00:00 14.6 9 Nordeste 26 Este 0 -- -- 43
2020-03-27 15:00:00 14.8 7 Nordeste 19 Nordeste 0 -- -- 40
2020-03-27 14:00:00 14.8 7 Este 19 Este 0 -- -- 43
2020-03-27 13:00:00 13.5 5 Este 16 Sudeste 0 -- -- 46
2020-03-27 12:00:00 12.3 0 Calma 6 Oeste 0 -- -- 50
2020-03-27 11:00:00 9.9 2 Sudeste 6 Sur 0 -- -- 60
2020-03-27 10:00:00 5.5 2 Nordeste 5 Sudeste 0 -- -- 79
2020-03-27 09:00:00 2.1 0 Calma 4 Norte 0 -- -- 94
2020-03-27 08:00:00 -0.8 0 Calma 3 Norte 0 -- -- 99
2020-03-27 07:00:00 -2 0 Calma 0 Calma 0 -- -- 99
2020-03-27 06:00:00 -1.6 0 Calma 3 Noroeste 0 -- -- 99
2020-03-27 05:00:00 -1.2 0 Calma 3 Sur 0 -- -- 99
2020-03-27 04:00:00 -1 0 Calma 5 Sur 0 -- -- 99
2020-03-27 03:00:00 -0.5 2 Sur 6 Sur 0 -- -- 99
2020-03-27 02:00:00 0.2 0 Calma 5 Norte 0 -- -- 99
2020-03-27 01:00:00 0.4 0 Calma 2 Noroeste 0 -- -- 97
2020-03-27 00:00:00 1.3 0 Calma 2 Sudoeste 0 -- -- 93
2020-03-26 23:00:00 2.7 2 Sudoeste 4 Norte 0 -- -- 92
2020-03-26 22:00:00 3.3 0 Calma 3 Sudoeste 0 -- -- 91
2020-03-26 21:00:00 3.6 0 Calma 3 Oeste 0 -- -- 82
2020-03-26 20:00:00 5.5 0 Calma 11 Norte 0 -- -- 70
2020-03-26 19:00:00 8.1 8 Norte 19 Norte 0 -- -- 52
2020-03-26 18:00:00 9.5 8 Norte 26 Norte 0 -- -- 49
2020-03-26 17:00:00 -- -- -- -- -- -- -- -- --
2020-03-26 16:00:00 10.3 15 Norte 34 Noroeste 0 -- -- 40
2020-03-26 15:00:00 11.2 15 Norte -- -- -- -- -- 41
2020-03-26 14:00:00 11.6 10 Norte 36 Noroeste 0 -- -- 42
2020-03-26 13:00:00 10.7 15 Norte 34 Norte 0 -- -- 44
2020-03-26 12:00:00 10.7 10 Norte 36 Nordeste 0 -- -- 46
2020-03-26 11:00:00 9.7 16 Norte 32 Nordeste 0 -- -- 55
2020-03-26 10:00:00 9.2 8 Nordeste 26 Nordeste 0 -- -- 47
2020-03-26 09:00:00 8.5 15 Nordeste 25 Nordeste 0 -- -- 59
2020-03-26 08:00:00 8.4 4 Nordeste 17 Nordeste 0 -- -- 66
2020-03-26 07:00:00 6.3 0 Calma 13 Sur 0 -- -- 87
2020-03-26 06:00:00 5.9 0 Calma 4 Noroeste 0 -- -- 95
2020-03-26 05:00:00 5.6 0 Calma 3 Sur 0 -- -- 94
2020-03-26 04:00:00 5.6 0 Calma 4 Norte 0 -- -- 91
2020-03-26 03:00:00 6.7 0 Calma 3 Norte 0 -- -- 87
2020-03-26 02:00:00 6.5 0 Calma 0 Calma 0 -- -- 87
2020-03-26 01:00:00 6.2 0 Calma 2 Norte 0 -- -- 88
2020-03-26 00:00:00 5.3 0 Calma 2 Sur 0 -- -- 92
2020-03-25 23:00:00 4.5 0 Calma 3 Nordeste 0 -- -- 90
2020-03-25 22:00:00 5.1 0 Calma 8 Sur 0 -- -- 79
2020-03-25 21:00:00 7.2 3 Noroeste 10 Norte 0 -- -- 72
2020-03-25 20:00:00 8.8 0 Calma 16 Norte 0 -- -- 61
2020-03-25 19:00:00 11.5 9 Norte 18 Noroeste 0 -- -- 50
2020-03-25 18:00:00 13.7 7 Noroeste 25 Noroeste 0 -- -- 46
2020-03-25 17:00:00 14.4 13 Norte 28 Noroeste 0 -- -- 48
2020-03-25 16:00:00 16.4 11 Noroeste 25 Norte 0 -- -- 40
2020-03-25 15:00:00 18.1 7 Noroeste 27 Norte 0 -- -- 37
2020-03-25 14:00:00 18 5 Noroeste 24 Norte 0 -- -- 40
2020-03-25 13:00:00 16.7 3 Noroeste 17 Sudoeste 0 -- -- 46
2020-03-25 12:00:00 15.5 10 Sudoeste 22 Sudoeste 0 -- -- 50
2020-03-25 11:00:00 14.7 3 Este 9 Nordeste 0 -- -- 62
2020-03-25 10:00:00 10.2 2 Nordeste 5 Nordeste 0 -- -- 83
2020-03-25 09:00:00 6 0 Calma 3 Nordeste 0 -- -- 98
2020-03-25 08:00:00 3.2 0 Calma 2 Sur 0 -- -- 99
2020-03-25 07:00:00 1.5 0 Calma 2 Sudoeste 0 -- -- 99
2020-03-25 06:00:00 1.6 0 Calma 3 Este 0 -- -- 99
2020-03-25 05:00:00 2.1 0 Calma -- -- 0 -- -- 99
2020-03-25 04:00:00 2.5 0 Calma 0 Calma 0 -- -- 99
2020-03-25 03:00:00 3.3 0 Calma 0 Calma 0 -- -- 99
2020-03-25 02:00:00 3.6 0 Calma 0 Calma 0 -- -- 95
2020-03-25 01:00:00 4.5 0 Calma 3 Sur 0 -- -- 99
2020-03-25 00:00:00 5.3 0 Calma 3 Sudoeste 0 -- -- 99
2020-03-24 23:00:00 6.1 0 Calma 3 Sur 0 -- -- 97
2020-03-24 22:00:00 7.4 0 Calma 2 Noroeste 0 -- -- 95
2020-03-24 21:00:00 9.4 0 Calma 5 Sur 0 -- -- 89
2020-03-24 20:00:00 11.7 3 Sudoeste 12 Este 0 -- -- 75
2020-03-24 19:00:00 15.3 5 Nordeste 23 Norte 0 -- -- 58
2020-03-24 18:00:00 17.5 12 Norte 23 Norte 0 -- -- 51
2020-03-24 17:00:00 18.4 10 Nordeste 25 Nordeste 0 -- -- 47
2020-03-24 16:00:00 18.8 10 Nordeste 24 Este 0 -- -- 48
2020-03-24 15:00:00 18.8 7 Nordeste 21 Nordeste 0 -- -- 49
2020-03-24 14:00:00 19.1 6 Este 17 Sudeste 0 -- -- 50
2020-03-24 13:00:00 17.8 6 Nordeste 15 Norte 0 -- -- 52
2020-03-24 12:00:00 18 4 Sudeste 17 Noroeste 0 -- -- 52
2020-03-24 11:00:00 15.8 2 Sudeste 5 Sur 0 -- -- 65
2020-03-24 10:00:00 11.7 0 Calma 4 Sur 0 -- -- 89
2020-03-24 09:00:00 8.5 0 Calma 3 Este 0 -- -- 99
2020-03-24 08:00:00 7.2 0 Calma 2 Sudeste 0 -- -- 99
2020-03-24 07:00:00 6.3 0 Calma 4 Nordeste 0 -- -- 99
2020-03-24 06:00:00 7.4 0 Calma 3 Sudoeste 0 -- -- 99
2020-03-24 05:00:00 7.4 0 Calma 3 Nordeste 0 -- -- 99
2020-03-24 04:00:00 7.9 0 Calma 3 Sudoeste 0 -- -- 99
2020-03-24 03:00:00 7.3 0 Calma 3 Sudoeste 0 -- -- 99
2020-03-24 02:00:00 6.5 0 Calma 4 Noroeste 0 -- -- 99
2020-03-24 01:00:00 7.8 0 Calma 4 Sudoeste 0 -- -- 95
2020-03-24 00:00:00 8.9 0 Calma 4 Sur 0 -- -- 97
2020-03-23 23:00:00 10.4 3 Sudoeste 4 Sur 0 -- -- 96
2020-03-23 22:00:00 11.8 0 Calma 7 Oeste 0 -- -- 91
2020-03-23 21:00:00 12.4 4 Oeste 9 Sudoeste 0 -- -- 89
2020-03-23 20:00:00 12.9 3 Sudoeste 6 Sudeste 0 -- -- 86
2020-03-23 19:00:00 14 0 Calma 10 Nordeste 0 -- -- 74
2020-03-23 18:00:00 14.8 3 Nordeste 22 Nordeste 0 -- -- 69
2020-03-23 17:00:00 15.4 10 Nordeste 23 Este 0 -- -- 61
2020-03-23 16:00:00 15.9 9 Nordeste 21 Nordeste 0 -- -- 60
2020-03-23 15:00:00 16.2 4 Nordeste 14 Norte 0 -- -- 60
2020-03-23 14:00:00 16.3 3 Sur 6 Sudeste 0 -- -- 60
2020-03-23 13:00:00 14.4 2 Sur 8 Sur 0 -- -- 71
2020-03-23 12:00:00 13 0 Calma 5 Noroeste 0 -- -- 79
2020-03-23 11:00:00 11.9 0 Calma 4 Este 0 -- -- 88
2020-03-23 10:00:00 11.4 0 Calma 3 Nordeste 0 -- -- 89
2020-03-23 09:00:00 10.3 0 Calma 0 Calma 0 -- -- 94
2020-03-23 08:00:00 9.4 0 Calma 0 Calma 0 -- -- 97
2020-03-23 07:00:00 9.1 0 Calma 2 Noroeste 0 -- -- 97
2020-03-23 06:00:00 9.2 0 Calma 2 Noroeste 0 -- -- 96
2020-03-23 05:00:00 9.3 0 Calma 3 Sudoeste 0 -- -- 96
2020-03-23 04:00:00 9.3 0 Calma 5 Noroeste 0 -- -- 96
2020-03-23 03:00:00 9.2 2 Noroeste 6 Noroeste 0 -- -- 96
2020-03-23 02:00:00 8.9 0 Calma 2 Noroeste 0 -- -- 96
2020-03-23 01:00:00 8.9 0 Calma 5 Nordeste 0 -- -- 96
2020-03-23 00:00:00 8.3 0 Calma 3 Sudeste 0 -- -- 95
2020-03-22 23:00:00 9.2 0 Calma 4 Noroeste 0 -- -- 93
2020-03-22 22:00:00 10.2 0 Calma 6 Sudeste 0 -- -- 86
2020-03-22 21:00:00 12.2 3 Sudeste 5 Sudeste 0 -- -- 81
2020-03-22 20:00:00 12.2 0 Calma 8 Nordeste 0 -- -- 78
2020-03-22 19:00:00 13 3 Este 11 Este 0 -- -- 71
2020-03-22 18:00:00 14.5 5 Este 17 Este 0 -- -- 65
2020-03-22 17:00:00 14.7 10 Este 17 Sudeste 0 -- -- 64
2020-03-22 16:00:00 15.2 10 Norte 19 Nordeste 0 -- -- 59
2020-03-22 15:00:00 16.8 8 Norte 21 Norte 0 -- -- 55
2020-03-22 14:00:00 16.8 9 Norte 21 Nordeste 0 -- -- 56
2020-03-22 13:00:00 16.1 13 Norte 23 Noroeste 0 -- -- 52
2020-03-22 12:00:00 17.2 3 Sur 8 Sudoeste 0 -- -- 53
2020-03-22 11:00:00 15.7 2 Sudeste 8 Sudeste 0 -- -- 58
2020-03-22 10:00:00 12.6 2 Sudeste 5 Sudeste 0 -- -- 75
2020-03-22 09:00:00 7.8 0 Calma 5 Noroeste 0 -- -- 95
2020-03-22 08:00:00 5.8 0 Calma 3 Sudoeste 0 -- -- 99
2020-03-22 07:00:00 5.3 0 Calma 3 Norte 0 -- -- 98
2020-03-22 06:00:00 6.4 0 Calma 2 Sudoeste 0 -- -- 98
2020-03-22 05:00:00 6.5 0 Calma 5 Noroeste 0 -- -- 99
2020-03-22 04:00:00 6 0 Calma 3 Sudeste 0 -- -- 99
2020-03-22 03:00:00 5.6 0 Calma 4 Oeste 0 -- -- 99
2020-03-22 02:00:00 5.1 0 Calma 4 Sudoeste 0 -- -- 97
2020-03-22 01:00:00 6.1 0 Calma 5 Sudoeste 0 -- -- 96
2020-03-22 00:00:00 6.5 0 Calma 4 Sur 0 -- -- 96
2020-03-21 23:00:00 7.9 0 Calma 5 Sudeste 0 -- -- 92
2020-03-21 22:00:00 8.7 0 Calma 5 Sur 0 -- -- 86
2020-03-21 21:00:00 9.5 0 Calma 5 Sur 0 -- -- 82
2020-03-21 20:00:00 11.6 3 Sur 10 Noroeste 0 -- -- 69
2020-03-21 19:00:00 15.8 6 Noroeste 16 Noroeste 0 -- -- 48
2020-03-21 18:00:00 18.5 3 Oeste 15 Noroeste 0 -- -- 44
2020-03-21 17:00:00 19.2 5 Noroeste 18 Noroeste 0 -- -- 43
2020-03-21 16:00:00 19.8 7 Sudoeste 18 Sudoeste 0 -- -- 42
2020-03-21 15:00:00 19.2 4 Noroeste 20 Sudeste 0 -- -- 42
2020-03-21 14:00:00 18.9 12 Sur 30 Sur 0 -- -- 42
2020-03-21 13:00:00 18.7 13 Sur 27 Sur 0 -- -- 43
2020-03-21 12:00:00 17.4 11 Sur 33 Sur 0 -- -- 46
2020-03-21 11:00:00 15.3 15 Sur 36 Sudoeste 0 -- -- 50
2020-03-21 10:00:00 13.7 15 Sur 36 Sur 0 -- -- 52
2020-03-21 09:00:00 12.8 15 Sur 38 Sur 0 -- -- 56
2020-03-21 08:00:00 11.1 5 Sudoeste 35 Sudoeste 0 -- -- 63
2020-03-21 07:00:00 11.9 13 Sur 36 Sur 0 -- -- 59
2020-03-21 06:00:00 11 10 Sur 24 Sur 0 -- -- 68
2020-03-21 05:00:00 7.7 2 Norte 11 Noroeste 0 -- -- 87
2020-03-21 04:00:00 9 2 Noroeste 18 Sur 0 -- -- 77
2020-03-21 03:00:00 12.6 9 Sur 26 Sudeste 0 -- -- 60
2020-03-21 02:00:00 13.5 12 Sur 31 Sudoeste 0 -- -- 58
2020-03-21 01:00:00 11.8 11 Sur 36 Sudoeste 0 -- -- 63
2020-03-21 00:00:00 12.8 5 Sudeste 25 Sudoeste 0 -- -- 62
2020-03-20 23:00:00 12.1 0 Calma 15 Norte 0 -- -- 62
2020-03-20 22:00:00 12.3 4 Sudeste 19 Sudoeste 0 -- -- 60
2020-03-20 21:00:00 14.1 4 Sudeste 17 Sur 0 -- -- 51
2020-03-20 20:00:00 14.8 3 Sur 28 Sudoeste 0 -- -- 49
2020-03-20 19:00:00 16.4 14 Sudoeste 30 Sur 0 -- -- 45
2020-03-20 18:00:00 17.2 10 Sur 29 Sudoeste 0 -- -- 44
2020-03-20 17:00:00 18.7 12 Sur 27 Sudoeste 0 -- -- 42
2020-03-20 16:00:00 19.1 13 Sudoeste 29 Sur 0 -- -- 41
2020-03-20 15:00:00 19.6 10 Sur 23 Sudoeste 0 -- -- 42
2020-03-20 14:00:00 19.3 11 Sur 28 Sudoeste 0 -- -- 42
2020-03-20 13:00:00 17.9 14 Sur 33 Sudoeste 0 -- -- 43
2020-03-20 12:00:00 16.9 14 Sur 37 Sur 0 -- -- 45
2020-03-20 11:00:00 16 16 Sur 34 Sudoeste 0 -- -- 46
2020-03-20 10:00:00 14.8 11 Sudoeste 33 Sudoeste 0 -- -- 49
2020-03-20 09:00:00 13.5 6 Oeste 27 Sudoeste 0 -- -- 55
2020-03-20 08:00:00 11.2 7 Oeste 15 Noroeste 0 -- -- 64
2020-03-20 07:00:00 9.6 2 Oeste 15 Sudoeste 0 -- -- 71
2020-03-20 06:00:00 11.2 6 Noroeste 23 Oeste 0 -- -- 65
2020-03-20 05:00:00 8.6 0 Calma 15 Este 0 -- -- 78
2020-03-20 04:00:00 9.5 0 Calma 10 Sudeste 0 -- -- 77
2020-03-20 03:00:00 7 2 Sudoeste 8 Sudeste 0 -- -- 92
2020-03-20 02:00:00 7.3 0 Calma 7 Este 0 -- -- 89
2020-03-20 01:00:00 7.8 0 Calma 10 Sudeste 0 -- -- 86
2020-03-20 00:00:00 10.2 5 Este 17 Sur 0 -- -- 76
2020-03-19 23:00:00 9 3 Este 12 Este 0 -- -- 89
2020-03-19 22:00:00 9.8 0 Calma 6 Sudeste 0 -- -- 91
2020-03-19 21:00:00 11.8 0 Calma 6 Sudoeste 0 -- -- 86
2020-03-19 20:00:00 13.4 0 Calma 5 Sudoeste 0 -- -- 79
2020-03-19 19:00:00 16.1 0 Calma 8 Noroeste 0 -- -- 63
2020-03-19 18:00:00 18.5 3 Nordeste 17 Sudoeste 0 -- -- 52
2020-03-19 17:00:00 19.7 4 Sudoeste 22 Sur 0 -- -- 46
2020-03-19 16:00:00 20.2 12 Sur 24 Sudoeste 0 -- -- 41
2020-03-19 15:00:00 21 10 Sur 30 Sur 0 -- -- 39
2020-03-19 14:00:00 20.7 9 Sur 22 Sur 0 -- -- 38
2020-03-19 13:00:00 20.8 10 Sur 22 Sur 0 -- -- 40
2020-03-19 12:00:00 20.5 5 Noroeste 14 Noroeste 0 -- -- 41
2020-03-19 11:00:00 18.6 7 Noroeste 18 Noroeste 0 -- -- 52
2020-03-19 10:00:00 13.2 3 Noroeste 11 Noroeste 0 -- -- 86
2020-03-19 09:00:00 9.1 0 Calma 8 Sur 0 -- -- 99
2020-03-19 08:00:00 7.5 0 Calma 12 Sudeste 0 -- -- 99
2020-03-19 07:00:00 6.9 0 Calma 9 Sudeste 0 -- -- 99
2020-03-19 06:00:00 6.6 0 Calma 8 Sur 0 -- -- 99
2020-03-19 05:00:00 6.9 0 Calma 7 Sudeste 0 -- -- 99
2020-03-19 04:00:00 7.2 0 Calma 6 Sur 0 -- -- 99
2020-03-19 03:00:00 7.5 0 Calma 5 Sur 0 -- -- 99
2020-03-19 02:00:00 7.8 0 Calma 5 Sudeste 0 -- -- 99
2020-03-19 01:00:00 8 0 Calma 2 Noroeste 0 -- -- 98
2020-03-19 00:00:00 8.6 0 Calma 3 Sur 0 -- -- 97
2020-03-18 23:00:00 9.1 0 Calma 3 Sudeste 0 -- -- 96
2020-03-18 22:00:00 9.9 0 Calma 2 Este 0 -- -- 94
2020-03-18 21:00:00 11 0 Calma 3 Sur 0 -- -- 91
2020-03-18 20:00:00 12.9 0 Calma 3 Sur 0 -- -- 83
2020-03-18 19:00:00 15.5 0 Calma 3 Sudoeste 0 -- -- 74
2020-03-18 18:00:00 18.7 0 Calma 6 Este 0 -- -- 63
2020-03-18 17:00:00 19.4 3 Este 8 Noroeste 0 -- -- 52
2020-03-18 16:00:00 19.5 4 Noroeste 13 Noroeste 0 -- -- 51
2020-03-18 15:00:00 19 6 Noroeste 13 Noroeste 0 -- -- 52
2020-03-18 14:00:00 18.8 0 Calma 5 Sur 0 -- -- 56
2020-03-18 13:00:00 17 0 Calma 4 Sudeste 0 -- -- 68
2020-03-18 12:00:00 14 2 Nordeste 4 Este 0 -- -- 76
2020-03-18 11:00:00 10.9 0 Calma 4 Noroeste 0 -- -- 95
2020-03-18 10:00:00 8 0 Calma 3 Sudoeste 0 -- -- 99
2020-03-18 09:00:00 6.4 0 Calma 3 Nordeste 0 -- -- 99
2020-03-18 08:00:00 6 0 Calma 2 Norte 0 -- -- 99
2020-03-18 07:00:00 6 0 Calma 0 Calma 0 -- -- 99
2020-03-18 06:00:00 6.2 0 Calma 2 Norte 0 -- -- 99
2020-03-18 05:00:00 6.2 0 Calma 0 Calma 0 -- -- 99
2020-03-18 04:00:00 6 0 Calma 2 Oeste 0 -- -- 99
2020-03-18 03:00:00 5.7 0 Calma 2 Sur 0 -- -- 99
2020-03-18 02:00:00 5.7 0 Calma 3 Noroeste 0 -- -- 99
2020-03-18 01:00:00 6 0 Calma 3 Sudoeste 0 -- -- 99
2020-03-18 00:00:00 6.8 0 Calma 4 Sur 0 -- -- 98
2020-03-17 23:00:00 7.8 0 Calma 4 Noroeste 0 -- -- 97
2020-03-17 22:00:00 8.5 0 Calma 5 Sur 0 -- -- 94
2020-03-17 21:00:00 9.8 2 Sur 6 Norte 0 -- -- 91
2020-03-17 20:00:00 11.6 0 Calma -- -- -- -- -- 85
2020-03-17 19:00:00 13.3 0 Calma 5 Nordeste 0 -- -- 75
2020-03-17 18:00:00 13.9 0 Calma 5 Sur 0 -- -- 70
2020-03-17 17:00:00 13.8 0 Calma 8 Sudeste 0 -- -- 69
2020-03-17 16:00:00 13.8 4 Este 9 Este 0 -- -- 72
2020-03-17 15:00:00 13.7 2 Este 6 Nordeste 0 -- -- 71
2020-03-17 14:00:00 12.4 0 Calma 2 Nordeste 0 -- -- 83
2020-03-17 13:00:00 11.7 0 Calma 4 Sur 0 -- -- 90
2020-03-17 12:00:00 11.2 0 Calma 2 Sur 0 -- -- 93
2020-03-17 11:00:00 10.7 0 Calma 3 Noroeste 0 -- -- 95
2020-03-17 10:00:00 10.3 0 Calma 3 Nordeste 0 -- -- 98
2020-03-17 09:00:00 9.6 0 Calma 5 Noroeste 0 -- -- 99
2020-03-17 08:00:00 9.1 0 Calma 5 Noroeste 0 -- -- 99
2020-03-17 07:00:00 9 0 Calma 3 Noroeste 0 -- -- 99
2020-03-17 06:00:00 9.2 0 Calma 0 Calma 0 -- -- 99
2020-03-17 05:00:00 9.2 0 Calma 0 Calma 0 -- -- 99
2020-03-17 04:00:00 9.3 0 Calma 0 Calma 0 -- -- 99
2020-03-17 03:00:00 9.3 0 Calma 2 Noroeste 0 -- -- 99
2020-03-17 02:00:00 9.2 0 Calma 2 Noroeste 0 -- -- 99
2020-03-17 01:00:00 9.2 0 Calma 2 Sudoeste 0 -- -- 99
2020-03-17 00:00:00 9.1 0 Calma 3 Norte 0 -- -- 99
2020-03-16 23:00:00 9.1 0 Calma 3 Sur 0.1 -- -- 99
2020-03-16 22:00:00 9.2 0 Calma 4 Noroeste 0 -- -- 99
2020-03-16 21:00:00 9.3 0 Calma 2 Oeste 0 -- -- 99
2020-03-16 20:00:00 9.3 0 Calma 5 Noroeste 0.1 -- -- 99
2020-03-16 19:00:00 9.5 0 Calma 5 Sudoeste 0.2 -- -- 97
2020-03-16 18:00:00 9.5 2 Sur 6 Este 0.1 -- -- 95
2020-03-16 17:00:00 9.6 2 Sur 5 Sudeste 0 -- -- 96
2020-03-16 16:00:00 10 0 Calma 5 Nordeste 0 -- -- 95
2020-03-16 15:00:00 10 0 Calma 3 Norte 0.2 -- -- 94
2020-03-16 14:00:00 9.6 0 Calma 2 Norte 0.6 -- -- 93
2020-03-16 13:00:00 9.4 0 Calma 3 Sudoeste 0.8 -- -- 92
2020-03-16 12:00:00 9.3 0 Calma 3 Sudeste 0.8 -- -- 93
2020-03-16 11:00:00 8.9 0 Calma 4 Noroeste 0.4 -- -- 95
2020-03-16 10:00:00 8.7 0 Calma 3 Sudoeste 0.4 -- -- 96
2020-03-16 09:00:00 8.3 0 Calma 3 Noroeste 1 -- -- 99
2020-03-16 08:00:00 7.8 0 Calma 3 Sur 2.6 -- -- 99
2020-03-16 07:00:00 7.8 0 Calma 5 Nordeste 2.3 -- -- 99
2020-03-16 06:00:00 7.8 0 Calma 3 Noroeste 1.9 -- -- 99
2020-03-16 05:00:00 8 0 Calma 3 Este 2.5 -- -- 99
2020-03-16 04:00:00 8 0 Calma 5 Noroeste 3 -- -- 98
2020-03-16 03:00:00 8.1 0 Calma 4 Sur 2.4 -- -- 99
2020-03-16 02:00:00 8.6 0 Calma 4 Noroeste 1.3 -- -- 99
2020-03-16 01:00:00 8.8 3 Sur 5 Sur 2.6 -- -- 99
2020-03-16 00:00:00 9.1 0 Calma 3 Este 1.8 -- -- 99
2020-03-15 23:00:00 9.4 0 Calma 4 Nordeste 4.8 -- -- 99
2020-03-15 22:00:00 9.4 0 Calma 14 Sudoeste 5 -- -- 97
2020-03-15 21:00:00 9.9 5 Sudoeste 11 Oeste 5.2 -- -- 95
2020-03-15 20:00:00 10.8 5 Sur 17 Sur 2.4 -- -- 92
2020-03-15 19:00:00 11.4 7 Este 13 Este 0 -- -- 88
2020-03-15 18:00:00 12 7 Este 15 Este 0 -- -- 84
2020-03-15 17:00:00 13.8 8 Este 23 Este 0 -- -- 77
2020-03-15 16:00:00 15.6 12 Este 28 Este 0 -- -- 66
2020-03-15 15:00:00 21.5 6 Sur 21 Sudoeste 0 -- -- 36
2020-03-15 14:00:00 21.7 11 Sur 32 Sur 0 -- -- 36
2020-03-15 13:00:00 20.8 10 Sur 33 Sudeste 0 -- -- 35
2020-03-15 12:00:00 19 17 Sur 40 Sudeste 0 -- -- 35
2020-03-15 11:00:00 18.9 7 Sudeste 38 Sudoeste 0 -- -- 36
2020-03-15 10:00:00 13.1 0 Calma 15 Norte 0 -- -- 60
2020-03-15 09:00:00 4.9 0 Calma 14 Sudeste 0 -- -- 93
2020-03-15 08:00:00 0.9 0 Calma 11 Sudeste 0 -- -- 99
2020-03-15 07:00:00 0 0 Calma 10 Sudeste 0 -- -- 99
2020-03-15 06:00:00 0.1 0 Calma 10 Noroeste 0 -- -- 99
2020-03-15 05:00:00 0 0 Calma 5 Sur 0 -- -- 99
2020-03-15 04:00:00 0.1 0 Calma 4 Sudoeste 0 -- -- 99
2020-03-15 03:00:00 0.6 0 Calma -- -- 0 -- -- 99
2020-03-15 02:00:00 1.1 0 Calma -- -- 0 -- -- 99
2020-03-15 01:00:00 1.6 0 Calma -- -- 0 -- -- 98
2020-03-15 00:00:00 2.3 0 Calma -- -- 0 -- -- 96
2020-03-14 23:00:00 3.4 0 Calma -- -- 0 -- -- 95
2020-03-14 22:00:00 4.2 0 Calma 2 Sudoeste 0 -- -- 89
2020-03-14 21:00:00 6.1 0 Calma 6 Sudoeste 0 -- -- 87
2020-03-14 20:00:00 7.8 2 Sur 7 Este 0 -- -- 77
2020-03-14 19:00:00 10.6 4 Nordeste 8 Norte 0 -- -- 64
2020-03-14 18:00:00 13.4 4 Sudeste 8 Este 0 -- -- 53
2020-03-14 17:00:00 13.8 4 Noroeste 10 Norte 0 -- -- 52
2020-03-14 16:00:00 13.9 3 Sur 10 Sudoeste 0 -- -- 52
2020-03-14 15:00:00 13.2 2 Norte 10 Sudoeste 0 -- -- 52
2020-03-14 14:00:00 13.3 0 Calma 13 Norte 0 -- -- 54
2020-03-14 13:00:00 13.1 5 Oeste 19 Nordeste 0 -- -- 50
2020-03-14 12:00:00 12.2 3 Nordeste 11 Norte 0 -- -- 52
2020-03-14 11:00:00 11.2 4 Sur 8 Sur 0 -- -- 59
2020-03-14 10:00:00 8.3 0 Calma 4 Sudoeste 0 -- -- 84
2020-03-14 09:00:00 4.7 0 Calma 3 Norte 0 -- -- 99
2020-03-14 08:00:00 3.5 0 Calma 0 Calma 0 -- -- 99
2020-03-14 07:00:00 3.9 0 Calma 0 Calma 0 -- -- 99
2020-03-14 06:00:00 3.4 0 Calma 0 Calma 0 -- -- 97
2020-03-14 05:00:00 2.8 0 Calma 0 Calma 0 -- -- 99
2020-03-14 04:00:00 2 0 Calma 2 Noroeste 0 -- -- 99
2020-03-14 03:00:00 2.5 0 Calma 3 Sudeste 0 -- -- 99
2020-03-14 02:00:00 3.3 0 Calma 4 Sur 0 -- -- 97
2020-03-14 01:00:00 4.1 0 Calma 4 Noroeste 0 -- -- 96
2020-03-14 00:00:00 5.8 0 Calma 5 Noroeste 0 -- -- 95
2020-03-13 23:00:00 5.8 0 Calma 4 Noroeste 0 -- -- 95
2020-03-13 22:00:00 5.3 0 Calma 3 Sur 0 -- -- 91
2020-03-13 21:00:00 6.8 0 Calma 4 Sudeste 0 -- -- 86
2020-03-13 20:00:00 9.3 3 Nordeste 7 Nordeste 0 -- -- 76
2020-03-13 19:00:00 10.3 3 Nordeste 7 Este 0 -- -- 70
2020-03-13 18:00:00 10.8 2 Este 10 Sudeste 0 -- -- 68
2020-03-13 17:00:00 10.6 3 Este 12 Este 0 -- -- 70
2020-03-13 16:00:00 10.5 6 Este 16 Este 0 -- -- 71
2020-03-13 15:00:00 10.7 6 Este 14 Este 0 -- -- 71
2020-03-13 14:00:00 10.3 10 Nordeste 17 Nordeste 0 -- -- 75
2020-03-13 13:00:00 10.6 9 Nordeste 16 Nordeste 0 -- -- 74
2020-03-13 12:00:00 11 7 Este 15 Este 0 -- -- 73
2020-03-13 11:00:00 10.8 6 Este 17 Nordeste 0 -- -- 74
2020-03-13 10:00:00 10.2 8 Este 14 Nordeste 0 -- -- 76
2020-03-13 09:00:00 9.8 4 Este 18 Nordeste 0 -- -- 80
2020-03-13 08:00:00 9.1 9 Nordeste 18 Nordeste 0 -- -- 82
2020-03-13 07:00:00 9.2 7 Este 14 Este 0 -- -- 80
2020-03-13 06:00:00 9.3 2 Este 10 Nordeste 0 -- -- 77
2020-03-13 05:00:00 9.6 2 Nordeste 8 Norte 0 -- -- 73
2020-03-13 04:00:00 9.6 3 Este 13 Nordeste 0 -- -- 73
2020-03-13 03:00:00 10.2 6 Norte 22 Nordeste 0 -- -- 68
2020-03-13 02:00:00 10.7 5 Nordeste 11 Nordeste 0 -- -- 78
2020-03-13 01:00:00 10.7 3 Nordeste 15 Nordeste 0 -- -- 81
2020-03-13 00:00:00 10.8 5 Noroeste 14 Norte 0 -- -- 85
2020-03-12 23:00:00 11 11 Norte 21 Norte 0 -- -- 84
2020-03-12 22:00:00 11.6 0 Calma 6 Sudeste 0 -- -- 92
2020-03-12 21:00:00 11.5 0 Calma 9 Norte 0 -- -- 90
2020-03-12 20:00:00 11.8 2 Nordeste 19 Noroeste 0.1 -- -- 87
2020-03-12 19:00:00 12.1 5 Norte 18 Norte 0 -- -- 85
2020-03-12 18:00:00 12.6 3 Este 11 Sudeste 0 -- -- 86
2020-03-12 17:00:00 13.2 4 Norte 13 Norte 0 -- -- 83
2020-03-12 16:00:00 13.9 0 Calma 8 Sudeste 0 -- -- 80
2020-03-12 15:00:00 13.6 4 Norte 11 Norte 0 -- -- 80
2020-03-12 14:00:00 14 0 Calma 5 Norte 0 -- -- 76
2020-03-12 13:00:00 13.7 0 Calma 3 Sudoeste 0 -- -- 81
2020-03-12 12:00:00 12.9 2 Sur 4 Sur 0 -- -- 86
2020-03-12 11:00:00 12.2 0 Calma 3 Norte 0 -- -- 94
2020-03-12 10:00:00 11.1 0 Calma 0 Calma 0 -- -- 96
2020-03-12 09:00:00 10.6 0 Calma 0 Calma 0.1 -- -- 96
2020-03-12 08:00:00 10.1 0 Calma 0 Calma 0.1 -- -- 96
2020-03-12 07:00:00 9.8 0 Calma 2 Noroeste 0 -- -- 96
2020-03-12 06:00:00 9.4 0 Calma 0 Calma 0 -- -- 96
2020-03-12 05:00:00 9 0 Calma 2 Sur 0 -- -- 96
2020-03-12 04:00:00 8.1 0 Calma 2 Sudeste 0 -- -- 96
2020-03-12 03:00:00 8.5 0 Calma 3 Sur 0 -- -- 96
2020-03-12 02:00:00 8.7 0 Calma 5 Noroeste 0 -- -- 99
2020-03-12 01:00:00 8.7 0 Calma 3 Norte 0 -- -- 95
2020-03-12 00:00:00 8.7 0 Calma 3 Noroeste 0 -- -- 95
2020-03-11 23:00:00 9.3 0 Calma 2 Nordeste 0 -- -- 93
2020-03-11 22:00:00 10.1 0 Calma 3 Sudeste 0 -- -- 94
2020-03-11 21:00:00 11.3 0 Calma 3 Sudoeste 0 -- -- 89
2020-03-11 20:00:00 14 0 Calma 12 Sudeste 0 -- -- 81
2020-03-11 19:00:00 17.3 6 Sudeste 12 Nordeste 0 -- -- 66
2020-03-11 18:00:00 20.4 4 Este 15 Este 0 -- -- 54
2020-03-11 17:00:00 21.6 8 Este 18 Este 0 -- -- 48
2020-03-11 16:00:00 22.7 6 Este 14 Nordeste 0 -- -- 47
2020-03-11 15:00:00 22.2 5 Este 10 Este 0 -- -- 46
2020-03-11 14:00:00 21 3 Sudoeste 6 Noroeste 0 -- -- 47
2020-03-11 13:00:00 18.2 0 Calma 6 Sudeste 0 -- -- 58
2020-03-11 12:00:00 13.7 0 Calma 5 Sudeste 0 -- -- 68
2020-03-11 11:00:00 9.7 0 Calma 5 Norte 0 -- -- 90
2020-03-11 10:00:00 5.7 0 Calma 5 Este 0 -- -- 99
2020-03-11 09:00:00 4.4 0 Calma 3 Sudoeste 0 -- -- 99
2020-03-11 08:00:00 4 0 Calma 4 Sudeste 0 -- -- 99
2020-03-11 07:00:00 4.1 2 Nordeste 4 Este 0 -- -- 99
2020-03-11 06:00:00 4.5 0 Calma 2 Nordeste 0 -- -- 99
2020-03-11 05:00:00 4.5 0 Calma 3 Sur 0 -- -- 99
2020-03-11 04:00:00 4.6 0 Calma 3 Noroeste 0 -- -- 97
2020-03-11 03:00:00 4.3 2 Noroeste 5 Noroeste 0 -- -- 97
2020-03-11 02:00:00 3.7 0 Calma -- -- 0 -- -- 99
2020-03-11 01:00:00 4.2 0 Calma -- -- 0 -- -- 99
2020-03-11 00:00:00 4.6 0 Calma -- -- 0 -- -- 99
2020-03-10 23:00:00 5.4 0 Calma -- -- 0 -- -- 98
2020-03-10 22:00:00 6.3 0 Calma -- -- 0 -- -- 96
2020-03-10 21:00:00 7.4 0 Calma 3 Oeste 0 -- -- 95
2020-03-10 20:00:00 9.1 0 Calma 5 Este 0 -- -- 84
2020-03-10 19:00:00 12.4 3 Este 14 Este 0 -- -- 73
2020-03-10 18:00:00 14 7 Este 17 Este 0 -- -- 67
2020-03-10 17:00:00 16 7 Nordeste 18 Nordeste 0 -- -- 58
2020-03-10 16:00:00 18.2 5 Este 16 Este 0 -- -- 49
2020-03-10 15:00:00 17.9 7 Este 16 Nordeste 0 -- -- 47
2020-03-10 14:00:00 17 2 Sudeste 6 Sudeste 0 -- -- 44
2020-03-10 13:00:00 14.3 0 Calma 6 Nordeste 0 -- -- 65
2020-03-10 12:00:00 11.2 0 Calma 5 Sudeste 0 -- -- 79
2020-03-10 11:00:00 8.1 0 Calma 5 Noroeste 0 -- -- 95
2020-03-10 10:00:00 5.7 0 Calma 3 Este 0 -- -- 99
2020-03-10 09:00:00 5.5 0 Calma 4 Nordeste 0 -- -- 99
2020-03-10 08:00:00 4.8 0 Calma 3 Nordeste 0 -- -- 99
2020-03-10 07:00:00 4.7 0 Calma 2 Nordeste 0 -- -- 97
2020-03-10 06:00:00 4.8 0 Calma 3 Norte 0 -- -- 99
2020-03-10 05:00:00 5 0 Calma 3 Nordeste 0 -- -- 99
2020-03-10 04:00:00 5.2 0 Calma 3 Nordeste 0.1 -- -- 99
2020-03-10 03:00:00 5 0 Calma 3 Sur 0 -- -- 99
2020-03-10 02:00:00 5.2 0 Calma 3 Sur 0 -- -- 99
2020-03-10 01:00:00 5.7 0 Calma 4 Sur 0 -- -- 99
2020-03-10 00:00:00 6.4 0 Calma 4 Sudoeste 0 -- -- 99
2020-03-09 23:00:00 7.7 0 Calma 2 Oeste 0 -- -- 98
2020-03-09 22:00:00 8.4 0 Calma 6 Norte 0 -- -- 97
2020-03-09 21:00:00 8.5 0 Calma 6 Sudeste 0 -- -- 96
2020-03-09 20:00:00 8.7 3 Sur 8 Sudoeste 0.3 -- -- 87
2020-03-09 19:00:00 9.3 0 Calma 5 Sur 0 -- -- 83
2020-03-09 18:00:00 10.1 2 Sudoeste 12 Sudoeste 0 -- -- 71
2020-03-09 17:00:00 9.3 6 Sudoeste 23 Norte 0 -- -- 77
2020-03-09 16:00:00 9.8 5 Sudeste 13 Sudoeste 0.2 -- -- 84
2020-03-09 15:00:00 10.5 12 Norte 31 Norte 0 -- -- 74
2020-03-09 14:00:00 10.7 4 Noroeste 14 Noroeste 0.1 -- -- 72
2020-03-09 13:00:00 9.8 7 Oeste 18 Noroeste 0.1 -- -- 75
2020-03-09 12:00:00 10 4 Este 18 Noroeste 0 -- -- 88
2020-03-09 11:00:00 9.2 6 Sudoeste 26 Noroeste 0.9 -- -- 85
2020-03-09 10:00:00 8.6 2 Sur 8 Noroeste 1.3 -- -- 97
2020-03-09 09:00:00 8.2 2 Este 13 Sudoeste 0.6 -- -- 97
2020-03-09 08:00:00 7.5 3 Sudoeste 7 Sudoeste 0.8 -- -- 99
2020-03-09 07:00:00 7.7 3 Sur 17 Sudoeste 1.4 -- -- 95
2020-03-09 06:00:00 8.7 4 Oeste 20 Sur 0.9 -- -- 83
2020-03-09 05:00:00 8 5 Sudoeste 13 Noroeste 1.4 -- -- 92
2020-03-09 04:00:00 8.3 0 Calma 18 Nordeste 1.1 -- -- 94
2020-03-09 03:00:00 8.9 3 Norte 16 Norte 0.8 -- -- 90
2020-03-09 02:00:00 8.7 0 Calma 11 Sudeste 0.5 -- -- 95
2020-03-09 01:00:00 9.3 5 Oeste 21 Oeste 0.6 -- -- 89
2020-03-09 00:00:00 9.2 3 Este 8 Sudeste 0.1 -- -- 96
2020-03-08 23:00:00 9.7 0 Calma 13 Noroeste 0.1 -- -- 88
2020-03-08 22:00:00 10.6 0 Calma 20 Noroeste 0.1 -- -- 79
2020-03-08 21:00:00 11.8 3 Oeste 13 Sudoeste 0 -- -- 68
2020-03-08 20:00:00 11.9 3 Oeste 13 Sudoeste 0 -- -- 65
2020-03-08 19:00:00 12.2 3 Sudoeste 24 Norte 0 -- -- 69
2020-03-08 18:00:00 12.3 2 Sudoeste 13 Nordeste 0 -- -- 73
2020-03-08 17:00:00 13.1 5 Este 13 Este 0 -- -- 66
2020-03-08 16:00:00 14.4 5 Norte 11 Noroeste 0 -- -- 57
2020-03-08 15:00:00 14.8 0 Calma 4 Este 0 -- -- 57
2020-03-08 14:00:00 13.7 0 Calma 5 Sudoeste 0 -- -- 60
2020-03-08 13:00:00 12.3 0 Calma 7 Norte 0 -- -- 75
2020-03-08 12:00:00 9.6 3 Norte 8 Sur 0 -- -- 82
2020-03-08 11:00:00 6.6 0 Calma 5 Sudeste 0 -- -- 96
2020-03-08 10:00:00 4.2 2 Este 8 Este 0 -- -- 99
2020-03-08 09:00:00 3.3 3 Nordeste 6 Nordeste 0 -- -- 99
2020-03-08 08:00:00 3.2 3 Nordeste 7 Este 0 -- -- 99
2020-03-08 07:00:00 3.7 0 Calma 5 Sur 0 -- -- 99
2020-03-08 06:00:00 4.2 2 Sudeste 6 Sudeste 0 -- -- 99
2020-03-08 05:00:00 4.4 3 Sur 6 Sudeste 0 -- -- 99
2020-03-08 04:00:00 4.9 2 Este 6 Sudeste 0 -- -- 99
2020-03-08 03:00:00 5.3 0 Calma 5 Sudoeste 0 -- -- 99
2020-03-08 02:00:00 5.5 3 Sur 6 Sudoeste 0.1 -- -- 99
2020-03-08 01:00:00 6.1 2 Sur 5 Sudoeste 0 -- -- 99
2020-03-08 00:00:00 6.2 0 Calma 3 Noroeste 0 -- -- 99
2020-03-07 23:00:00 6.2 0 Calma 4 Sudoeste 0 -- -- 99
2020-03-07 22:00:00 6.4 0 Calma 4 Sur 0 -- -- 98
2020-03-07 21:00:00 8.6 0 Calma 5 Sur 0 -- -- 99
2020-03-07 20:00:00 9.1 0 Calma 9 Sudoeste 0 -- -- 96
2020-03-07 19:00:00 9.4 5 Sudoeste 14 Sudoeste 0 -- -- 92
2020-03-07 18:00:00 10.5 4 Sudoeste 6 Sudoeste 0.1 -- -- 93
2020-03-07 17:00:00 10.2 0 Calma 8 Este 0.6 -- -- 95
2020-03-07 16:00:00 10.7 2 Este 8 Nordeste 0.3 -- -- 95
2020-03-07 15:00:00 10.4 2 Sudeste 10 Sudeste 0.6 -- -- 95
2020-03-07 14:00:00 10.4 3 Este 10 Este 0.6 -- -- 95
2020-03-07 13:00:00 10.2 4 Este 7 Este 0.3 -- -- 93
2020-03-07 12:00:00 9.7 0 Calma 8 Este 0.4 -- -- 94
2020-03-07 11:00:00 9.6 3 Este 12 Este 0.2 -- -- 89
2020-03-07 10:00:00 8.5 0 Calma 11 Este 3.9 -- -- 96
2020-03-07 09:00:00 8.3 4 Sudeste 14 Nordeste 0.2 -- -- 95
2020-03-07 08:00:00 8 2 Oeste 19 Este 0 -- -- 90
2020-03-07 07:00:00 7.1 0 Calma 9 Sudoeste 0.3 -- -- 95
2020-03-07 06:00:00 6.6 3 Sur 17 Norte 0.2 -- -- 95
2020-03-07 05:00:00 6.7 2 Norte 14 Norte 2.3 -- -- 93
2020-03-07 04:00:00 6.4 3 Noroeste 15 Oeste 2.1 -- -- 94
2020-03-07 03:00:00 6.2 0 Calma 10 Noroeste 0.2 -- -- 94
2020-03-07 02:00:00 6.1 3 Noroeste 26 Noroeste 2.4 -- -- 92
2020-03-07 01:00:00 5.5 0 Calma 8 Noroeste 0.1 -- -- 95
2020-03-07 00:00:00 6.2 6 Norte 44 Norte 4.5 -- -- 86
2020-03-06 23:00:00 7.2 5 Norte 22 Noroeste 0 -- -- 76
2020-03-06 22:00:00 6.4 3 Noroeste 28 Noroeste 2.5 -- -- 86
2020-03-06 21:00:00 7.2 4 Noroeste 37 Noroeste 0.5 -- -- 79
2020-03-06 20:00:00 6.7 5 Oeste 34 Norte 3.1 -- -- 83
2020-03-06 19:00:00 6.6 3 Norte 25 Noroeste 4.8 -- -- 86
2020-03-06 18:00:00 6.9 3 Oeste 35 Noroeste 3.3 -- -- 77
2020-03-06 17:00:00 7.4 8 Noroeste 37 Noroeste 1 -- -- 70
2020-03-06 16:00:00 6.5 4 Noroeste 41 Noroeste 3.5 -- -- 82
2020-03-06 15:00:00 7.4 8 Noroeste 36 Noroeste 0.4 -- -- 69
2020-03-06 14:00:00 6.8 0 Calma 18 Oeste 1.4 -- -- 83
2020-03-06 13:00:00 6 15 Noroeste 49 Noroeste 1.6 -- -- 74
2020-03-06 12:00:00 7.1 3 Noroeste 29 Norte 1.4 -- -- 78
2020-03-06 11:00:00 4.6 0 Calma 23 Sudoeste 4.8 -- -- 88
2020-03-06 10:00:00 5.7 3 Sudoeste 20 Sudoeste 1.2 -- -- 88
2020-03-06 09:00:00 5.5 6 Sudoeste 33 Sudoeste 2 -- -- 83
2020-03-06 08:00:00 5.8 7 Sudoeste 29 Sudoeste 1.2 -- -- 80
2020-03-06 07:00:00 6.4 4 Sudoeste 23 Oeste 1.8 -- -- 82
2020-03-06 06:00:00 6.5 4 Sudoeste 27 Sudoeste 0.8 -- -- 84
2020-03-06 05:00:00 4.3 0 Calma 6 Norte 0 -- -- 97
2020-03-06 04:00:00 4 2 Sur 8 Sur 0 -- -- 97
2020-03-06 03:00:00 3.6 0 Calma 4 Nordeste 0 -- -- 97
2020-03-06 02:00:00 3.7 0 Calma 5 Norte 0 -- -- 96
2020-03-06 01:00:00 5.3 0 Calma 5 Sudeste 0 -- -- 95
2020-03-06 00:00:00 6.1 0 Calma 6 Noroeste 0.1 -- -- 96
2020-03-05 23:00:00 7.2 0 Calma 18 Sur 2.2 -- -- 89
2020-03-05 22:00:00 7.2 2 Oeste 17 Sudoeste 0.4 -- -- 89
2020-03-05 21:00:00 7.8 0 Calma 20 Norte 2.1 -- -- 80
2020-03-05 20:00:00 8.9 0 Calma 21 Sudoeste 0.3 -- -- 71
2020-03-05 19:00:00 9.3 7 Oeste 36 Nordeste 0 -- -- 75
2020-03-05 18:00:00 9.4 9 Oeste 36 Norte 1.6 -- -- 75
2020-03-05 17:00:00 10.8 9 Oeste 35 Oeste 0.2 -- -- 66
2020-03-05 16:00:00 11.8 7 Oeste 51 Noroeste 0 -- -- 64
2020-03-05 15:00:00 11.9 14 Noroeste 47 Noroeste 0.3 -- -- 67
2020-03-05 14:00:00 12 2 Sur 11 Noroeste 0 -- -- 76
2020-03-05 13:00:00 11.4 3 Nordeste 7 Nordeste 0.1 -- -- 87
2020-03-05 12:00:00 10.3 5 Sur 10 Sudoeste 3.6 -- -- 92
2020-03-05 11:00:00 10.4 3 Sudeste 16 Sudoeste 4.5 -- -- 91
2020-03-05 10:00:00 10.6 5 Sur 40 Noroeste 4.6 -- -- 91
2020-03-05 09:00:00 13.7 5 Noroeste 18 Sudoeste 0.5 -- -- 77
2020-03-05 08:00:00 14.1 4 Sudoeste 15 Sudoeste 0.2 -- -- 73
2020-03-05 07:00:00 14.1 4 Nordeste 18 Noroeste 0.1 -- -- 71
2020-03-05 06:00:00 14.8 6 Oeste 22 Noroeste 0 -- -- 63
2020-03-05 05:00:00 11.3 3 Norte 13 Sur 0 -- -- 87
2020-03-05 04:00:00 10.3 3 Este 19 Este 0 -- -- 98
2020-03-05 03:00:00 8.9 0 Calma 12 Nordeste 0 -- -- 97
2020-03-05 02:00:00 8.3 0 Calma 6 Sur 0 -- -- 99
2020-03-05 01:00:00 7.8 0 Calma 6 Sudoeste 0 -- -- 99
2020-03-05 00:00:00 8.2 0 Calma 5 Sudoeste 0 -- -- 99
2020-03-04 23:00:00 8.8 0 Calma 3 Sur 0 -- -- 99
2020-03-04 22:00:00 9.4 0 Calma 4 Sur 0 -- -- 98
2020-03-04 21:00:00 11.2 0 Calma 5 Sudoeste 0 -- -- 96
2020-03-04 20:00:00 12.5 0 Calma 3 Sudoeste 0 -- -- 91
2020-03-04 19:00:00 14.4 3 Norte 4 Norte 0 -- -- 87
2020-03-04 18:00:00 15.9 0 Calma 5 Norte 0 -- -- 76
2020-03-04 17:00:00 16.4 0 Calma 5 Este 0 -- -- 65
2020-03-04 16:00:00 16.4 2 Este 7 Sudoeste 0 -- -- 69
2020-03-04 15:00:00 16.1 4 Sur 13 Sudoeste 0 -- -- 72
2020-03-04 14:00:00 15.1 4 Oeste 17 Noroeste 0 -- -- 77
2020-03-04 13:00:00 13.2 0 Calma 6 Noroeste 0 -- -- 95
2020-03-04 12:00:00 11.7 0 Calma 4 Noroeste 0 -- -- 97
2020-03-04 11:00:00 10.3 0 Calma 4 Nordeste 0.1 -- -- 99
2020-03-04 10:00:00 8.4 0 Calma 3 Sur 1.7 -- -- 99
2020-03-04 09:00:00 8 0 Calma 3 Norte 2.6 -- -- 99
2020-03-04 08:00:00 7.6 0 Calma 4 Sur 3.4 -- -- 99
2020-03-04 07:00:00 7.6 0 Calma 5 Norte 1.8 -- -- 99
2020-03-04 06:00:00 7.6 0 Calma 4 Norte 1.4 -- -- 99
2020-03-04 05:00:00 7.6 0 Calma 3 Norte 0.6 -- -- 99
2020-03-04 04:00:00 7.5 0 Calma 7 Noroeste 0 -- -- 99
2020-03-04 03:00:00 7.6 2 Noroeste 4 Noroeste 0 -- -- 99
2020-03-04 02:00:00 7.8 0 Calma 3 Norte 0 -- -- 99
2020-03-04 01:00:00 7.8 0 Calma 3 Nordeste 0 -- -- 99
2020-03-04 00:00:00 7.8 0 Calma 5 Noroeste 0 -- -- 95
2020-03-03 23:00:00 8.2 0 Calma 4 Sudeste 0 -- -- 95
2020-03-03 22:00:00 8.5 0 Calma 6 Nordeste 0.2 -- -- 95
2020-03-03 21:00:00 8.7 2 Sudoeste 7 Sudoeste 1.1 -- -- 94
2020-03-03 20:00:00 9.1 3 Oeste 12 Noroeste 0.2 -- -- 92
2020-03-03 19:00:00 10.3 7 Noroeste 32 Norte 0.3 -- -- 74
2020-03-03 18:00:00 11.2 10 Noroeste 45 Noroeste 0.1 -- -- 72
2020-03-03 17:00:00 12.5 17 Noroeste 63 Noroeste 0 -- -- 70
2020-03-03 16:00:00 14 23 Noroeste 59 Noroeste 0 -- -- 61
2020-03-03 15:00:00 13.4 16 Noroeste 47 Noroeste 0.3 -- -- 72
2020-03-03 14:00:00 9 0 Calma 22 Oeste 3.3 -- -- 91
2020-03-03 13:00:00 9.8 11 Noroeste 25 Noroeste 0.2 -- -- 77
2020-03-03 12:00:00 10 10 Noroeste 24 Noroeste 0.1 -- -- 73
2020-03-03 11:00:00 7.5 13 Noroeste 25 Noroeste 0.4 -- -- 79
2020-03-03 10:00:00 6.5 9 Noroeste 23 Sudoeste 1.2 -- -- 84
2020-03-03 09:00:00 6.1 0 Calma 14 Noroeste 1 -- -- 89
2020-03-03 08:00:00 6.3 8 Noroeste 17 Noroeste 0.6 -- -- 85
2020-03-03 07:00:00 6.2 6 Noroeste 17 Oeste 0.1 -- -- 88
2020-03-03 06:00:00 5.1 0 Calma 5 Noroeste 0 -- -- 99
2020-03-03 05:00:00 4.9 0 Calma 8 Oeste 0 -- -- 99
2020-03-03 04:00:00 4.7 0 Calma 4 Este 0 -- -- 99
2020-03-03 03:00:00 4.6 0 Calma 5 Este 0.1 -- -- 99
2020-03-03 02:00:00 4.2 0 Calma 3 Norte 0 -- -- 99
2020-03-03 01:00:00 4.2 0 Calma 5 Este 0 -- -- 99
2020-03-03 00:00:00 5 2 Este 7 Norte 0.1 -- -- 98